createdAt,value
2018-07-28T00:01:12.629Z,19.37
2018-07-28T00:03:41.301Z,19.41
2018-07-28T00:06:10.003Z,19.43
2018-07-28T00:08:38.659Z,19.37
2018-07-28T00:11:07.271Z,19.37
2018-07-28T00:13:35.977Z,19.37
2018-07-28T00:16:04.650Z,19.42
2018-07-28T00:18:33.269Z,19.43
2018-07-28T00:21:01.956Z,19.40
2018-07-28T00:23:30.634Z,19.34
2018-07-28T00:26:05.377Z,19.34
2018-07-28T00:28:34.035Z,19.30
2018-07-28T00:31:02.646Z,19.33
2018-07-28T00:33:31.276Z,19.33
2018-07-28T00:35:59.946Z,19.36
2018-07-28T00:38:28.595Z,19.36
2018-07-28T00:40:57.275Z,19.35
2018-07-28T00:43:25.881Z,19.38
2018-07-28T00:45:54.529Z,19.34
2018-07-28T00:48:23.143Z,19.41
2018-07-28T00:50:51.744Z,19.44
2018-07-28T00:53:20.391Z,19.48
2018-07-28T00:55:48.999Z,19.41
2018-07-28T00:58:17.810Z,19.37
2018-07-28T01:00:47.085Z,19.33
2018-07-28T01:03:15.718Z,19.33
2018-07-28T01:05:44.317Z,19.35
2018-07-28T01:08:12.914Z,19.35
2018-07-28T01:10:41.587Z,19.31
2018-07-28T01:13:10.301Z,19.18
2018-07-28T01:15:38.945Z,19.25
2018-07-28T01:18:07.585Z,19.36
2018-07-28T01:20:36.209Z,19.37
2018-07-28T01:23:04.949Z,19.39
2018-07-28T01:25:33.604Z,19.38
2018-07-28T01:28:03.106Z,19.36
2018-07-28T01:30:32.777Z,19.28
2018-07-28T01:33:02.021Z,19.11
2018-07-28T01:35:30.670Z,18.98
2018-07-28T01:37:59.558Z,18.91
2018-07-28T01:40:28.147Z,18.86
2018-07-28T01:42:56.835Z,18.90
2018-07-28T01:45:25.421Z,18.90
2018-07-28T01:47:54.103Z,18.90
2018-07-28T01:50:22.739Z,18.90
2018-07-28T01:52:51.322Z,18.93
2018-07-28T01:55:20.018Z,18.99
2018-07-28T01:57:48.649Z,18.97
2018-07-28T02:00:17.262Z,18.98
2018-07-28T02:02:45.953Z,18.95
2018-07-28T02:05:14.612Z,18.95
2018-07-28T02:07:43.237Z,18.94
2018-07-28T02:10:11.903Z,18.91
2018-07-28T02:12:40.549Z,18.88
2018-07-28T02:15:09.618Z,18.81
2018-07-28T02:17:38.262Z,18.77
2018-07-28T02:20:07.541Z,18.76
2018-07-28T02:22:36.157Z,18.84
2018-07-28T02:25:06.525Z,18.77
2018-07-28T02:27:35.170Z,18.69
2018-07-28T02:30:04.330Z,18.61
2018-07-28T02:32:32.958Z,18.61
2018-07-28T02:35:01.578Z,18.62
2018-07-28T02:37:30.182Z,18.62
2018-07-28T02:39:58.758Z,18.53
2018-07-28T02:42:27.374Z,18.56
2018-07-28T02:44:56.034Z,18.60
2018-07-28T02:47:24.750Z,18.65
2018-07-28T02:49:53.426Z,18.62
2018-07-28T02:52:22.071Z,18.63
2018-07-28T02:54:50.705Z,18.66
2018-07-28T02:57:19.309Z,18.69
2018-07-28T02:59:47.909Z,18.70
2018-07-28T03:02:16.554Z,18.70
2018-07-28T03:04:45.166Z,18.66
2018-07-28T03:07:13.860Z,18.60
2018-07-28T03:09:42.506Z,18.56
2018-07-28T03:12:11.105Z,18.46
2018-07-28T03:14:39.770Z,18.44
2018-07-28T03:17:08.388Z,18.43
2018-07-28T03:19:37.267Z,18.42
2018-07-28T03:22:05.996Z,18.39
2018-07-28T03:24:34.694Z,18.32
2018-07-28T03:27:03.372Z,18.32
2018-07-28T03:29:31.982Z,18.32
2018-07-28T03:32:00.671Z,18.36
2018-07-28T03:34:29.297Z,18.35
2018-07-28T03:36:57.970Z,18.33
2018-07-28T03:39:26.612Z,18.33
2018-07-28T03:41:55.273Z,18.37
2018-07-28T03:44:24.182Z,18.29
2018-07-28T03:46:52.868Z,18.34
2018-07-28T03:49:21.532Z,18.36
2018-07-28T03:51:50.180Z,18.42
2018-07-28T03:54:18.854Z,18.41
2018-07-28T03:59:46.969Z,18.49
2018-07-28T04:02:15.621Z,18.38
2018-07-28T04:04:44.275Z,18.36
2018-07-28T04:07:12.958Z,18.48
2018-07-28T04:09:41.630Z,18.37
2018-07-28T04:12:10.239Z,18.38
2018-07-28T04:14:38.909Z,18.40
2018-07-28T04:17:07.587Z,18.49
2018-07-28T04:19:36.193Z,18.52
2018-07-28T04:22:04.941Z,18.52
2018-07-28T04:24:33.593Z,18.69
2018-07-28T04:27:02.281Z,18.77
2018-07-28T04:29:30.983Z,18.81
2018-07-28T04:31:59.675Z,18.87
2018-07-28T04:34:28.910Z,18.95
2018-07-28T04:36:57.925Z,19.00
2018-07-28T04:39:26.513Z,19.05
2018-07-28T04:41:55.106Z,19.17
2018-07-28T04:44:23.728Z,19.11
2018-07-28T04:46:52.336Z,19.19
2018-07-28T04:49:20.999Z,19.12
2018-07-28T04:51:49.937Z,19.21
2018-07-28T04:54:18.582Z,19.24
2018-07-28T04:56:47.183Z,19.31
2018-07-28T04:59:15.881Z,19.38
2018-07-28T05:01:44.533Z,19.53
2018-07-28T05:04:13.156Z,19.53
2018-07-28T05:06:41.824Z,19.57
2018-07-28T05:09:11.150Z,19.53
2018-07-28T05:11:39.829Z,19.56
2018-07-28T05:14:08.534Z,19.60
2018-07-28T05:16:37.130Z,19.68
2018-07-28T05:19:05.832Z,19.72
2018-07-28T05:21:34.501Z,19.71
2018-07-28T05:24:03.112Z,19.81
2018-07-28T05:26:31.754Z,19.91
2018-07-28T05:29:00.356Z,19.96
2018-07-28T05:31:28.962Z,19.88
2018-07-28T05:33:57.550Z,19.96
2018-07-28T05:36:26.174Z,19.95
2018-07-28T05:38:54.831Z,20.01
2018-07-28T05:41:23.417Z,20.07
2018-07-28T05:43:52.054Z,20.12
2018-07-28T05:46:20.662Z,20.06
2018-07-28T05:48:49.310Z,20.15
2018-07-28T05:51:17.914Z,20.21
2018-07-28T05:53:46.616Z,20.25
2018-07-28T05:56:15.229Z,20.37
2018-07-28T05:58:44.400Z,20.41
2018-07-28T06:01:13.175Z,20.40
2018-07-28T06:03:42.040Z,20.39
2018-07-28T06:06:10.744Z,20.46
2018-07-28T06:08:39.394Z,20.47
2018-07-28T06:11:08.020Z,20.58
2018-07-28T06:13:36.653Z,20.69
2018-07-28T06:16:05.350Z,20.77
2018-07-28T06:18:33.952Z,20.76
2018-07-28T06:21:02.691Z,20.78
2018-07-28T06:23:31.346Z,20.92
2018-07-28T06:26:00.045Z,21.04
2018-07-28T06:28:28.635Z,21.17
2018-07-28T06:30:57.275Z,21.19
2018-07-28T06:33:25.931Z,21.07
2018-07-28T06:35:54.630Z,21.08
2018-07-28T06:38:23.253Z,21.11
2018-07-28T06:40:51.869Z,21.29
2018-07-28T06:43:20.502Z,21.32
2018-07-28T06:46:59.242Z,21.48
2018-07-28T06:49:27.860Z,21.37
2018-07-28T06:51:56.516Z,21.37
2018-07-28T06:54:25.132Z,21.28
2018-07-28T06:56:53.735Z,21.22
2018-07-28T06:59:22.514Z,21.08
2018-07-28T07:01:51.186Z,21.14
2018-07-28T07:04:19.823Z,21.09
2018-07-28T07:06:48.498Z,20.93
2018-07-28T07:09:17.180Z,20.88
2018-07-28T07:11:45.880Z,21.12
2018-07-28T07:14:14.494Z,21.25
2018-07-28T07:16:43.169Z,21.41
2018-07-28T07:19:11.839Z,21.38
2018-07-28T07:21:40.473Z,21.57
2018-07-28T07:24:09.980Z,21.66
2018-07-28T07:26:38.595Z,21.39
2018-07-28T07:29:07.211Z,21.34
2018-07-28T07:31:35.858Z,21.50
2018-07-28T07:34:04.565Z,21.64
2018-07-28T07:36:33.223Z,21.78
2018-07-28T07:39:01.855Z,21.81
2018-07-28T07:41:30.529Z,21.85
2018-07-28T07:43:59.213Z,21.93
2018-07-28T07:46:27.800Z,21.94
2018-07-28T07:48:56.463Z,21.83
2018-07-28T07:51:25.547Z,22.01
2018-07-28T07:53:54.226Z,22.09
2018-07-28T07:56:22.848Z,22.06
2018-07-28T07:58:51.464Z,22.29
2018-07-28T08:01:20.167Z,22.39
2018-07-28T08:03:48.815Z,22.44
2018-07-28T08:06:17.514Z,22.62
2018-07-28T08:08:46.202Z,22.81
2018-07-28T08:11:14.894Z,22.87
2018-07-28T08:13:43.493Z,22.98
2018-07-28T08:16:12.189Z,23.18
2018-07-28T08:18:40.823Z,23.29
2018-07-28T08:21:09.429Z,23.45
2018-07-28T08:23:38.117Z,23.43
2018-07-28T08:26:06.953Z,22.93
2018-07-28T08:28:35.573Z,23.04
2018-07-28T08:31:04.299Z,23.20
2018-07-28T08:33:32.980Z,23.31
2018-07-28T08:36:01.639Z,23.53
2018-07-28T08:38:30.271Z,23.61
2018-07-28T08:40:59.238Z,23.80
2018-07-28T08:43:27.917Z,23.84
2018-07-28T08:45:56.577Z,23.62
2018-07-28T08:48:25.182Z,23.60
2018-07-28T08:50:53.858Z,23.60
2018-07-28T08:53:22.553Z,23.76
2018-07-28T08:55:51.159Z,23.83
2018-07-28T08:58:19.794Z,23.85
2018-07-28T09:00:48.438Z,23.92
2018-07-28T09:03:17.054Z,24.14
2018-07-28T09:05:45.661Z,24.32
2018-07-28T09:08:14.277Z,24.56
2018-07-28T09:10:42.975Z,24.65
2018-07-28T09:13:11.618Z,24.58
2018-07-28T09:15:40.263Z,24.75
2018-07-28T09:18:08.867Z,24.92
2018-07-28T09:20:37.490Z,24.95
2018-07-28T09:23:06.191Z,24.90
2018-07-28T09:25:34.874Z,24.67
2018-07-28T09:28:03.564Z,24.71
2018-07-28T09:30:32.887Z,24.70
2018-07-28T09:35:36.283Z,24.78
2018-07-28T09:38:04.983Z,24.61
2018-07-28T09:40:33.691Z,24.79
2018-07-28T09:43:02.381Z,24.97
2018-07-28T09:45:31.058Z,25.24
2018-07-28T09:47:59.666Z,25.39
2018-07-28T09:50:28.327Z,25.47
2018-07-28T09:52:56.966Z,25.42
2018-07-28T09:55:25.624Z,25.62
2018-07-28T09:57:54.284Z,25.70
2018-07-28T10:00:28.146Z,25.82
2018-07-28T10:02:56.811Z,25.81
2018-07-28T10:05:25.483Z,25.93
2018-07-28T10:07:54.167Z,25.92
2018-07-28T10:10:22.777Z,26.14
2018-07-28T10:12:51.418Z,26.16
2018-07-28T10:15:20.065Z,26.32
2018-07-28T10:17:48.787Z,26.51
2018-07-28T10:20:17.432Z,26.43
2018-07-28T10:22:46.176Z,26.42
2018-07-28T10:25:14.797Z,26.67
2018-07-28T10:27:43.393Z,26.48
2018-07-28T10:30:12.798Z,26.73
2018-07-28T10:32:41.370Z,26.61
2018-07-28T10:35:11.474Z,26.11
2018-07-28T10:37:40.180Z,26.03
2018-07-28T10:40:09.826Z,26.23
2018-07-28T10:42:38.923Z,26.25
2018-07-28T10:45:07.738Z,26.30
2018-07-28T10:47:36.454Z,26.57
2018-07-28T10:50:05.231Z,27.03
2018-07-28T10:52:33.920Z,27.39
2018-07-28T10:55:02.562Z,27.65
2018-07-28T10:57:31.170Z,27.80
2018-07-28T10:59:59.901Z,27.85
2018-07-28T11:02:28.585Z,28.13
2018-07-28T11:04:58.165Z,28.35
2018-07-28T11:07:26.766Z,28.62
2018-07-28T11:09:55.706Z,29.25
2018-07-28T11:12:24.364Z,29.48
2018-07-28T11:14:53.665Z,29.72
2018-07-28T11:17:22.295Z,29.84
2018-07-28T11:19:50.968Z,30.23
2018-07-28T11:22:19.616Z,30.61
2018-07-28T11:24:48.220Z,31.18
2018-07-28T11:27:16.879Z,30.58
2018-07-28T11:29:45.589Z,31.13
2018-07-28T11:32:25.411Z,31.06
2018-07-28T11:35:05.131Z,31.36
2018-07-28T13:51:45.912Z,27.96
2018-07-28T13:54:14.601Z,27.66
2018-07-28T13:56:43.411Z,27.56
2018-07-28T13:59:12.041Z,27.55
2018-07-28T14:01:40.691Z,27.53
2018-07-28T14:04:09.378Z,27.70
2018-07-28T14:06:38.007Z,27.58
2018-07-28T14:09:08.574Z,27.38
2018-07-28T14:11:37.281Z,27.23
2018-07-28T14:14:05.935Z,27.16
2018-07-28T14:16:34.717Z,27.11
2018-07-28T14:19:03.412Z,26.99
2018-07-28T14:21:32.110Z,27.13
2018-07-28T14:24:00.920Z,26.95
2018-07-28T14:26:29.622Z,26.84
2018-07-28T14:28:58.249Z,26.99
2018-07-28T14:31:27.049Z,27.19
2018-07-28T14:33:56.717Z,27.17
2018-07-28T14:36:25.303Z,27.28
2018-07-28T14:38:54.030Z,27.30
2018-07-28T14:41:22.701Z,27.45
2018-07-28T14:43:51.386Z,27.38
2018-07-28T14:46:20.020Z,27.51
2018-07-28T14:48:48.729Z,27.78
2018-07-28T14:51:17.389Z,27.99
2018-07-28T14:53:45.999Z,28.17
2018-07-28T14:56:14.911Z,28.26
2018-07-28T14:58:43.566Z,28.39
2018-07-28T15:01:12.199Z,28.61
2018-07-28T15:03:40.883Z,28.65
2018-07-28T15:06:09.551Z,28.66
2018-07-28T15:08:38.196Z,28.36
2018-07-28T15:11:06.858Z,28.56
2018-07-28T15:13:35.519Z,28.90
2018-07-28T15:16:04.248Z,29.46
2018-07-28T15:18:32.935Z,30.25
2018-07-28T15:21:01.620Z,30.98
2018-07-28T15:23:30.242Z,31.32
2018-07-28T15:25:58.953Z,31.94
2018-07-28T15:28:27.634Z,31.87
2018-07-28T15:30:56.360Z,31.44
2018-07-28T15:33:25.264Z,31.11
2018-07-28T15:35:53.896Z,30.82
2018-07-28T15:38:23.039Z,31.09
2018-07-28T15:40:51.740Z,31.26
2018-07-28T15:43:20.515Z,31.59
2018-07-28T15:45:49.165Z,31.97
2018-07-28T15:48:17.842Z,31.98
2018-07-28T15:50:46.492Z,31.41
2018-07-28T15:53:15.099Z,30.92
2018-07-28T15:55:44.033Z,30.68
2018-07-28T15:58:12.734Z,30.60
2018-07-28T16:00:42.219Z,30.74
2018-07-28T16:03:10.913Z,30.86
2018-07-28T16:05:39.775Z,31.04
2018-07-28T16:08:08.394Z,31.08
2018-07-28T16:10:37.077Z,31.21
2018-07-28T16:13:05.697Z,31.59
2018-07-28T16:15:34.298Z,31.69
2018-07-28T16:18:02.979Z,31.72
2018-07-28T16:20:31.606Z,31.66
2018-07-28T16:23:00.218Z,31.88
2018-07-28T16:25:28.848Z,31.93
2018-07-28T16:27:57.590Z,31.75
2018-07-28T16:30:27.306Z,31.66
2018-07-28T16:32:56.621Z,31.27
2018-07-28T16:35:25.214Z,30.88
2018-07-28T16:37:53.853Z,30.77
2018-07-28T16:40:22.497Z,30.25
2018-07-28T16:42:51.105Z,30.06
2018-07-28T16:45:19.799Z,30.18
2018-07-28T16:47:48.486Z,30.36
2018-07-28T16:50:17.146Z,30.24
2018-07-28T16:52:45.804Z,30.25
2018-07-28T16:55:14.472Z,30.20
2018-07-28T16:57:43.274Z,30.14
2018-07-28T17:00:12.977Z,29.96
2018-07-28T17:02:41.711Z,29.80
2018-07-28T17:05:10.423Z,29.93
2018-07-28T17:07:39.049Z,29.81
2018-07-28T17:10:07.784Z,29.64
2018-07-28T17:12:36.478Z,29.38
2018-07-28T17:15:05.477Z,29.11
2018-07-28T17:17:34.130Z,29.09
2018-07-28T17:20:02.842Z,28.69
2018-07-28T17:22:31.534Z,28.45
2018-07-28T17:25:00.193Z,27.98
2018-07-28T17:27:28.858Z,27.93
2018-07-28T17:29:57.446Z,27.68
2018-07-28T17:32:26.061Z,27.51
2018-07-28T17:34:54.713Z,27.39
2018-07-28T17:37:23.379Z,27.19
2018-07-28T17:39:52.027Z,27.01
2018-07-28T17:42:20.648Z,27.02
2018-07-28T17:44:50.896Z,26.87
2018-07-28T17:47:19.723Z,26.70
2018-07-28T17:49:48.432Z,26.61
2018-07-28T17:52:17.093Z,26.56
2018-07-28T17:54:45.769Z,26.62
2018-07-28T17:57:14.468Z,26.54
2018-07-28T17:59:43.158Z,26.57
2018-07-28T18:02:11.825Z,26.36
2018-07-28T18:04:40.922Z,26.11
2018-07-28T18:07:09.675Z,25.59
2018-07-28T18:09:38.315Z,25.14
2018-07-28T18:12:07.009Z,24.78
2018-07-28T18:14:35.645Z,23.92
2018-07-28T18:17:04.317Z,23.34
2018-07-28T18:19:33.316Z,23.09
2018-07-28T18:22:04.179Z,22.57
2018-07-28T18:24:33.023Z,22.10
2018-07-28T18:27:01.716Z,21.81
2018-07-28T18:29:30.422Z,21.59
2018-07-28T18:31:59.048Z,21.51
2018-07-28T18:34:28.687Z,21.45
2018-07-28T18:36:57.353Z,21.39
2018-07-28T18:39:25.992Z,21.40
2018-07-28T18:41:54.632Z,21.46
2018-07-28T18:44:23.293Z,21.37
2018-07-28T18:46:51.965Z,21.51
2018-07-28T18:49:20.576Z,21.58
2018-07-28T18:51:49.491Z,21.62
2018-07-28T18:54:18.918Z,21.63
2018-07-28T18:56:47.605Z,21.74
2018-07-28T18:59:16.490Z,21.80
2018-07-28T19:01:45.140Z,21.31
2018-07-28T19:04:14.623Z,21.47
2018-07-28T19:06:43.599Z,21.52
2018-07-28T19:09:17.493Z,21.45
2018-07-28T19:11:46.212Z,21.54
2018-07-28T19:14:20.168Z,21.52
2018-07-28T19:19:24.169Z,21.16
2018-07-28T19:21:53.855Z,21.26
2018-07-28T19:24:23.321Z,21.08
2018-07-28T19:26:51.924Z,20.79
2018-07-28T19:29:25.766Z,20.76
2018-07-28T19:31:54.394Z,20.66
2018-07-28T19:34:23.043Z,20.71
2018-07-28T19:36:56.863Z,20.56
2018-07-28T19:39:25.521Z,20.29
2018-07-28T19:41:59.372Z,19.98
2018-07-28T19:44:28.667Z,20.03
2018-07-28T19:46:57.324Z,19.98
2018-07-28T19:49:25.924Z,19.86
2018-07-28T19:51:54.555Z,20.01
2018-07-28T19:54:23.191Z,20.04
2018-07-28T19:56:51.788Z,20.00
2018-07-28T19:59:20.429Z,20.01
2018-07-28T20:01:49.063Z,20.15
2018-07-28T20:04:17.698Z,20.19
2018-07-28T20:06:46.747Z,20.31
2018-07-28T20:09:15.415Z,20.50
2018-07-28T20:11:44.140Z,20.56
2018-07-28T20:14:12.763Z,20.73
2018-07-28T20:16:41.384Z,20.89
2018-07-28T20:19:10.040Z,21.04
2018-07-28T20:21:38.747Z,20.97
2018-07-28T20:24:07.469Z,20.98
2018-07-28T20:26:36.223Z,21.09
2018-07-28T20:29:04.965Z,21.02
2018-07-28T20:31:33.612Z,20.97
2018-07-28T20:34:02.325Z,21.07
2018-07-28T20:36:31.006Z,21.20
2018-07-28T20:38:59.689Z,21.12
2018-07-28T20:41:28.431Z,21.08
2018-07-28T20:43:57.075Z,21.03
2018-07-28T20:46:25.767Z,21.14
2018-07-28T20:48:54.555Z,21.07
2018-07-28T20:51:23.374Z,21.18
2018-07-28T20:53:52.139Z,21.23
2018-07-28T20:56:21.624Z,21.43
2018-07-28T20:58:50.338Z,21.46
2018-07-28T21:01:18.971Z,21.50
2018-07-28T21:03:47.622Z,21.42
2018-07-28T21:06:16.270Z,21.43
2018-07-28T21:08:44.876Z,21.37
2018-07-28T21:11:14.667Z,21.37
2018-07-28T21:13:43.332Z,21.36
2018-07-28T21:16:11.963Z,21.39
2018-07-28T21:18:40.633Z,21.45
2018-07-28T21:21:09.054Z,21.49
2018-07-28T21:23:37.714Z,21.41
2018-07-28T21:26:06.980Z,21.32
2018-07-28T21:28:35.628Z,21.19
2018-07-28T21:31:04.313Z,21.22
2018-07-28T21:33:33.044Z,21.21
2018-07-28T21:36:01.645Z,21.21
2018-07-28T21:38:30.289Z,21.18
2018-07-28T21:40:58.972Z,21.21
2018-07-28T21:43:27.607Z,21.15
2018-07-28T21:45:56.299Z,21.17
2018-07-28T21:48:25.983Z,21.25
2018-07-28T21:50:54.615Z,21.21
2018-07-28T21:53:23.865Z,21.14
2018-07-28T21:55:52.633Z,21.12
2018-07-28T21:58:21.324Z,21.07
2018-07-28T22:00:58.378Z,20.97
2018-07-28T22:03:27.718Z,20.92
2018-07-28T22:05:56.390Z,20.89
2018-07-28T22:08:25.096Z,20.86
2018-07-28T22:10:54.123Z,20.86
2018-07-28T22:13:22.788Z,20.86
2018-07-28T22:15:51.612Z,20.78
2018-07-28T22:18:20.279Z,20.87
2018-07-28T22:20:49.258Z,20.72
2018-07-28T22:23:17.994Z,20.70
2018-07-28T22:25:46.696Z,20.75
2018-07-28T22:28:15.460Z,20.77
2018-07-28T22:30:44.238Z,20.72
2018-07-28T22:33:13.032Z,20.71
2018-07-28T22:35:41.726Z,20.60
2018-07-28T22:38:10.445Z,20.65
2018-07-28T22:40:39.151Z,20.63
2018-07-28T22:43:08.149Z,20.64
2018-07-28T22:45:36.849Z,20.65
2018-07-28T22:48:05.535Z,20.68
2018-07-28T22:50:34.252Z,20.64
2018-07-28T22:53:02.916Z,20.61
2018-07-28T22:55:31.575Z,20.54
2018-07-28T22:58:00.252Z,20.50
2018-07-28T23:00:28.926Z,20.48
2018-07-28T23:02:57.588Z,20.49
2018-07-28T23:05:26.255Z,20.53
2018-07-28T23:07:54.959Z,20.54
2018-07-28T23:10:23.931Z,20.54
2018-07-28T23:12:52.591Z,20.50
2018-07-28T23:15:21.290Z,20.48
2018-07-28T23:17:49.933Z,20.46
2018-07-28T23:20:18.648Z,20.39
2018-07-28T23:22:47.297Z,20.38
2018-07-28T23:25:15.983Z,20.37
2018-07-28T23:27:44.687Z,20.41
2018-07-28T23:30:13.575Z,20.44
2018-07-28T23:32:42.263Z,20.50
2018-07-28T23:39:47.479Z,20.52
2018-07-28T23:42:16.181Z,20.53
2018-07-28T23:44:44.886Z,20.60
2018-07-28T23:47:13.564Z,20.66
2018-07-28T23:49:42.266Z,20.68
2018-07-28T23:52:10.974Z,20.77
2018-07-28T23:54:39.707Z,20.77
2018-07-28T23:57:08.446Z,20.78
2018-07-28T23:59:37.156Z,20.71
